Time;durP1;ratioP1;P1;durP2;ratioP2;P2;SDS_P1;SDS_P2;PMS_P1;PMS_P2;Temp;Humidity;BMP_temperature;BMP_pressure;BME280_temperature;BME280_humidity;BME280_pressure;Samples;Min_cycle;Max_cycle;Signal;HPM_P1;HPM_P2
2022/06/01 00:00:48;;;;;;;9.70;9.00;;;;;;;;;;5085381;28;24414;-45
2022/06/01 00:03:14;;;;;;;9.70;9.10;;;;;;;;;;5079973;28;24438;-46
2022/06/01 00:05:39;;;;;;;9.70;9.00;;;;;;;;;;5084666;28;24898;-46
2022/06/01 00:08:05;;;;;;;10.13;9.43;;;;;;;;;;5087026;28;24421;-45
2022/06/01 00:10:30;;;;;;;11.07;10.20;;;;;;;;;;5073718;28;24476;-46
2022/06/01 00:12:55;;;;;;;11.65;10.85;;;;;;;;;;5086774;28;24424;-45
2022/06/01 00:15:21;;;;;;;11.20;10.30;;;;;;;;;;5081967;28;24445;-45
2022/06/01 00:17:46;;;;;;;10.90;10.10;;;;;;;;;;5078576;28;24433;-45
2022/06/01 00:20:13;;;;;;;10.60;9.90;;;;;;;;;;5085519;28;24418;-45
2022/06/01 00:22:38;;;;;;;10.90;10.10;;;;;;;;;;5085112;28;24422;-46
2022/06/01 00:25:04;;;;;;;10.93;10.10;;;;;;;;;;5078303;28;24441;-45
2022/06/01 00:27:30;;;;;;;11.50;10.60;;;;;;;;;;5086127;28;24433;-46
2022/06/01 00:29:55;;;;;;;11.23;10.33;;;;;;;;;;5089559;28;24424;-46
2022/06/01 00:32:20;;;;;;;11.30;10.50;;;;;;;;;;5080846;28;24979;-46
2022/06/01 00:34:45;;;;;;;11.25;10.45;;;;;;;;;;5088565;28;24409;-46
2022/06/01 00:37:10;;;;;;;11.70;10.80;;;;;;;;;;5080561;28;24418;-46
2022/06/01 00:39:36;;;;;;;11.40;10.60;;;;;;;;;;5085505;28;24607;-45
2022/06/01 00:42:08;;;;;;;10.67;9.77;;;;;;;;;;5081294;28;24472;-45
2022/06/01 00:44:33;;;;;;;12.60;11.60;;;;;;;;;;5055607;28;24541;-45
2022/06/01 00:46:58;;;;;;;12.03;11.00;;;;;;;;;;5062323;28;24641;-46
2022/06/01 00:49:24;;;;;;;12.70;11.70;;;;;;;;;;5063031;28;24525;-46
2022/06/01 00:51:51;;;;;;;12.27;11.38;;;;;;;;;;5056744;28;21378;-45
2022/06/01 00:54:16;;;;;;;11.90;11.00;;;;;;;;;;5052996;28;24430;-46
2022/06/01 00:56:44;;;;;;;12.33;11.43;;;;;;;;;;5052783;28;24466;-45
2022/06/01 00:59:11;;;;;;;12.50;11.60;;;;;;;;;;5056406;28;25225;-45
2022/06/01 01:01:36;;;;;;;12.10;11.30;;;;;;;;;;5052431;28;24427;-45
2022/06/01 01:04:03;;;;;;;11.80;10.90;;;;;;;;;;5060464;28;24792;-46
2022/06/01 01:06:31;;;;;;;12.50;11.60;;;;;;;;;;5060750;28;25064;-45
2022/06/01 01:08:58;;;;;;;12.70;11.70;;;;;;;;;;5057194;28;24432;-45
2022/06/01 01:11:43;;;;;;;13.80;12.80;;;;;;;;;;5058357;28;24418;-45
2022/06/01 01:14:08;;;;;;;13.88;12.77;;;;;;;;;;5047466;28;24427;-46
2022/06/01 01:16:34;;;;;;;12.20;11.30;;;;;;;;;;5046450;28;24463;-45
2022/06/01 01:19:00;;;;;;;13.70;12.50;;;;;;;;;;5061548;28;24422;-46
2022/06/01 01:21:46;;;;;;;14.88;13.73;;;;;;;;;;5060022;28;24791;-45
2022/06/01 01:24:31;;;;;;;15.60;14.50;;;;;;;;;;5049887;28;24508;-46
2022/06/01 01:26:56;;;;;;;16.27;14.98;;;;;;;;;;5054166;28;24782;-46
2022/06/01 01:29:30;;;;;;;15.77;14.47;;;;;;;;;;5065375;28;24421;-46
2022/06/01 01:31:56;;;;;;;16.45;15.25;;;;;;;;;;5049116;28;24427;-45
2022/06/01 01:34:21;;;;;;;17.30;15.90;;;;;;;;;;5055693;28;24422;-46
2022/06/01 01:36:48;;;;;;;16.85;15.55;;;;;;;;;;5045286;28;24550;-46
2022/06/01 01:39:14;;;;;;;16.65;15.45;;;;;;;;;;5061150;28;24437;-46
2022/06/01 01:41:44;;;;;;;17.93;16.43;;;;;;;;;;5053639;28;24976;-46
2022/06/01 01:44:26;;;;;;;17.88;16.48;;;;;;;;;;5056531;28;24504;-46
2022/06/01 01:46:52;;;;;;;18.08;16.67;;;;;;;;;;5057741;28;24508;-46
2022/06/01 01:49:18;;;;;;;17.45;16.15;;;;;;;;;;5046717;28;24427;-46
2022/06/01 01:51:44;;;;;;;17.50;16.10;;;;;;;;;;5050294;28;24442;-46
2022/06/01 01:54:29;;;;;;;17.58;16.17;;;;;;;;;;5055909;28;24422;-45
2022/06/01 01:57:02;;;;;;;16.97;15.67;;;;;;;;;;5031478;28;25359;-45
2022/06/01 01:59:46;;;;;;;16.55;15.25;;;;;;;;;;5051968;28;24404;-45
2022/06/01 02:02:20;;;;;;;15.73;14.52;;;;;;;;;;5071206;28;24472;-45
2022/06/01 02:07:45;;;;;;;16.85;15.55;;;;;;;;;;5062650;28;24790;-45
2022/06/01 02:12:54;;;;;;;16.30;15.10;;;;;;;;;;5057238;28;24865;-45
2022/06/01 02:15:29;;;;;;;16.30;15.00;;;;;;;;;;5053417;28;24522;-45
2022/06/01 02:17:56;;;;;;;16.85;15.55;;;;;;;;;;5060693;28;24421;-45
2022/06/01 02:20:27;;;;;;;16.50;15.20;;;;;;;;;;5057249;28;24994;-46
2022/06/01 02:22:53;;;;;;;17.58;16.27;;;;;;;;;;5055906;28;24435;-45
2022/06/01 02:25:18;;;;;;;15.93;14.63;;;;;;;;;;5055516;28;24433;-46
2022/06/01 02:27:44;;;;;;;17.23;15.73;;;;;;;;;;5058399;28;24436;-45
2022/06/01 02:30:09;;;;;;;16.52;15.23;;;;;;;;;;5059036;28;24955;-45
2022/06/01 02:32:36;;;;;;;16.00;14.80;;;;;;;;;;5054226;28;24430;-45
2022/06/01 02:35:02;;;;;;;16.55;15.35;;;;;;;;;;5052001;28;24416;-45
2022/06/01 02:37:29;;;;;;;17.35;16.05;;;;;;;;;;5062202;28;24503;-45
2022/06/01 02:39:55;;;;;;;16.98;15.68;;;;;;;;;;5052164;28;24411;-45
2022/06/01 02:42:26;;;;;;;17.48;16.08;;;;;;;;;;5063193;28;24438;-45
2022/06/01 02:45:00;;;;;;;17.13;15.82;;;;;;;;;;5049570;28;24995;-45
2022/06/01 02:47:27;;;;;;;17.60;16.20;;;;;;;;;;5062099;28;24442;-46
2022/06/01 02:49:52;;;;;;;17.60;16.20;;;;;;;;;;5046033;28;24421;-45
2022/06/01 02:52:17;;;;;;;17.80;16.30;;;;;;;;;;5055544;28;24438;-45
2022/06/01 02:54:43;;;;;;;18.27;16.77;;;;;;;;;;5060879;28;24438;-45
2022/06/01 02:57:08;;;;;;;18.38;16.92;;;;;;;;;;5053287;28;24481;-45
2022/06/01 02:59:33;;;;;;;19.60;18.00;;;;;;;;;;5061837;28;24778;-45
2022/06/01 03:01:59;;;;;;;17.60;16.20;;;;;;;;;;5062527;28;24419;-46
2022/06/01 03:04:24;;;;;;;19.55;17.95;;;;;;;;;;5062388;28;24599;-46
2022/06/01 03:06:50;;;;;;;19.33;17.83;;;;;;;;;;5062448;28;24446;-46
2022/06/01 03:09:15;;;;;;;18.80;17.23;;;;;;;;;;5057499;28;25023;-45
2022/06/01 03:11:40;;;;;;;18.58;17.08;;;;;;;;;;5066993;28;25006;-45
2022/06/01 03:14:05;;;;;;;19.30;17.80;;;;;;;;;;5066414;28;24532;-46
2022/06/01 03:16:30;;;;;;;19.00;17.50;;;;;;;;;;5066007;28;24429;-45
2022/06/01 03:18:55;;;;;;;19.95;18.27;;;;;;;;;;5061986;28;24824;-46
2022/06/01 03:21:21;;;;;;;19.55;17.95;;;;;;;;;;5069418;28;24418;-45
2022/06/01 03:23:46;;;;;;;19.10;17.50;;;;;;;;;;5069527;28;24395;-45
2022/06/01 03:26:12;;;;;;;19.38;17.77;;;;;;;;;;5065719;28;24467;-45
2022/06/01 03:28:37;;;;;;;19.30;17.80;;;;;;;;;;5069554;28;24470;-46
2022/06/01 03:31:03;;;;;;;18.90;17.40;;;;;;;;;;5069179;28;24471;-45
2022/06/01 03:33:28;;;;;;;19.27;17.67;;;;;;;;;;5069488;28;24804;-45
2022/06/01 03:35:53;;;;;;;19.77;18.17;;;;;;;;;;5068865;28;25209;-45
2022/06/01 03:38:18;;;;;;;20.10;18.30;;;;;;;;;;5069239;28;24407;-45
2022/06/01 03:40:43;;;;;;;18.20;16.70;;;;;;;;;;5069163;28;24437;-45
2022/06/01 03:43:09;;;;;;;19.63;18.03;;;;;;;;;;5075233;28;24773;-45
2022/06/01 03:48:19;;;;;;;17.10;15.50;;;;;;;;;;5080292;28;24421;-45
2022/06/01 03:50:44;;;;;;;18.23;16.53;;;;;;;;;;5085445;28;24410;-45
2022/06/01 03:53:09;;;;;;;17.60;16.00;;;;;;;;;;5072901;28;24498;-45
2022/06/01 03:55:34;;;;;;;16.97;15.37;;;;;;;;;;5072914;28;24940;-46
2022/06/01 03:58:00;;;;;;;16.80;15.30;;;;;;;;;;5084492;28;24415;-45
2022/06/01 04:00:25;;;;;;;15.80;14.40;;;;;;;;;;5069919;28;24434;-45
2022/06/01 04:02:51;;;;;;;17.00;15.50;;;;;;;;;;5074049;28;25065;-45
2022/06/01 04:05:17;;;;;;;17.20;15.50;;;;;;;;;;5072046;28;24524;-46
2022/06/01 04:07:42;;;;;;;16.02;14.52;;;;;;;;;;5074859;28;24935;-46
2022/06/01 04:10:08;;;;;;;14.90;13.55;;;;;;;;;;5063734;28;24419;-45
2022/06/01 04:12:33;;;;;;;15.70;14.10;;;;;;;;;;5073847;28;24812;-46
2022/06/01 04:14:58;;;;;;;15.30;13.70;;;;;;;;;;5069524;28;24425;-46
2022/06/01 04:17:23;;;;;;;14.85;13.45;;;;;;;;;;5064726;28;24497;-46
2022/06/01 04:19:49;;;;;;;15.10;13.75;;;;;;;;;;5073509;28;24829;-46
2022/06/01 04:22:15;;;;;;;14.23;12.93;;;;;;;;;;5064022;28;24523;-46
2022/06/01 04:24:40;;;;;;;14.07;12.88;;;;;;;;;;5044828;28;25017;-46
2022/06/01 04:27:05;;;;;;;13.70;12.50;;;;;;;;;;5061933;28;24439;-46
2022/06/01 04:29:30;;;;;;;13.83;12.63;;;;;;;;;;5076655;28;24788;-45
2022/06/01 04:32:03;;;;;;;12.93;11.83;;;;;;;;;;5070652;28;24874;-45
2022/06/01 04:34:29;;;;;;;13.23;12.13;;;;;;;;;;5066724;28;24422;-45
2022/06/01 04:36:54;;;;;;;13.20;12.00;;;;;;;;;;5065816;28;25002;-45
2022/06/01 04:39:20;;;;;;;12.97;11.80;;;;;;;;;;5085505;28;24394;-45
2022/06/01 04:41:45;;;;;;;12.53;11.43;;;;;;;;;;5071039;28;24424;-46
2022/06/01 04:44:10;;;;;;;13.55;12.40;;;;;;;;;;5079993;28;24533;-45
2022/06/01 04:46:36;;;;;;;14.38;12.95;;;;;;;;;;5082999;28;25056;-46
2022/06/01 04:49:01;;;;;;;13.83;12.53;;;;;;;;;;5083981;28;24468;-46
2022/06/01 04:51:26;;;;;;;14.20;13.00;;;;;;;;;;5066804;28;24422;-46
2022/06/01 04:53:52;;;;;;;13.77;12.52;;;;;;;;;;5081576;28;25070;-46
2022/06/01 04:56:17;;;;;;;12.83;11.73;;;;;;;;;;5074769;28;25035;-46
2022/06/01 04:58:42;;;;;;;13.20;12.00;;;;;;;;;;5085125;28;24422;-45
2022/06/01 05:01:07;;;;;;;13.75;12.35;;;;;;;;;;5089729;28;25440;-46
2022/06/01 05:03:32;;;;;;;13.15;12.02;;;;;;;;;;5080813;28;24426;-46
2022/06/01 05:05:58;;;;;;;12.90;11.70;;;;;;;;;;5081814;28;24454;-45
2022/06/01 05:08:23;;;;;;;12.90;11.70;;;;;;;;;;5075624;28;24807;-46
2022/06/01 05:10:48;;;;;;;12.32;11.23;;;;;;;;;;5068937;28;24485;-46
2022/06/01 05:13:15;;;;;;;12.67;11.57;;;;;;;;;;5069741;28;24448;-46
2022/06/01 05:15:45;;;;;;;12.70;11.60;;;;;;;;;;5070097;28;24567;-45
2022/06/01 05:18:10;;;;;;;12.88;11.68;;;;;;;;;;5086516;28;24458;-45
2022/06/01 05:20:35;;;;;;;13.93;12.73;;;;;;;;;;5081439;28;25403;-45
2022/06/01 05:23:00;;;;;;;11.63;10.73;;;;;;;;;;5079575;28;24437;-45
2022/06/01 05:25:26;;;;;;;13.30;12.10;;;;;;;;;;5085041;28;24428;-45
2022/06/01 05:27:51;;;;;;;12.07;11.07;;;;;;;;;;5088522;28;24557;-45
2022/06/01 05:30:16;;;;;;;11.05;10.15;;;;;;;;;;5083295;28;24417;-46
2022/06/01 05:32:42;;;;;;;11.93;10.93;;;;;;;;;;5087411;28;24422;-46
2022/06/01 05:35:07;;;;;;;11.63;10.63;;;;;;;;;;5084777;28;24764;-46
2022/06/01 05:37:32;;;;;;;11.13;10.13;;;;;;;;;;5087374;28;24804;-46
2022/06/01 05:39:57;;;;;;;10.75;9.90;;;;;;;;;;5087264;28;24402;-45
2022/06/01 05:42:22;;;;;;;11.10;10.20;;;;;;;;;;5082369;28;24442;-45
2022/06/01 05:44:47;;;;;;;9.95;9.25;;;;;;;;;;5085407;28;24394;-46
2022/06/01 05:47:13;;;;;;;9.60;8.90;;;;;;;;;;5087142;28;24981;-45
2022/06/01 05:49:38;;;;;;;11.07;10.17;;;;;;;;;;5087121;28;24438;-45
2022/06/01 05:52:03;;;;;;;10.93;10.13;;;;;;;;;;5080068;28;24778;-46
2022/06/01 05:54:28;;;;;;;12.60;11.60;;;;;;;;;;5085117;28;25356;-45
2022/06/01 05:56:53;;;;;;;12.83;11.73;;;;;;;;;;5086637;28;24402;-45
2022/06/01 05:59:19;;;;;;;12.20;11.30;;;;;;;;;;5073021;28;24422;-45
2022/06/01 06:01:44;;;;;;;12.87;11.87;;;;;;;;;;5068714;28;24411;-45
2022/06/01 06:04:09;;;;;;;9.80;9.10;;;;;;;;;;5066959;28;24391;-45
2022/06/01 06:06:34;;;;;;;12.95;11.95;;;;;;;;;;5064608;28;24427;-45
2022/06/01 06:09:02;;;;;;;12.93;11.90;;;;;;;;;;5060102;28;24427;-45
2022/06/01 06:11:28;;;;;;;12.23;11.15;;;;;;;;;;5059560;28;24520;-46
2022/06/01 06:13:54;;;;;;;11.15;10.35;;;;;;;;;;5064160;28;24419;-45
2022/06/01 06:16:19;;;;;;;10.60;9.80;;;;;;;;;;5075874;28;24495;-45
2022/06/01 06:18:45;;;;;;;10.17;9.37;;;;;;;;;;5076315;28;24994;-46
2022/06/01 06:21:11;;;;;;;9.63;8.93;;;;;;;;;;5076525;28;24964;-45
2022/06/01 06:23:36;;;;;;;9.85;9.15;;;;;;;;;;5066958;28;24593;-45
2022/06/01 06:26:02;;;;;;;9.40;8.60;;;;;;;;;;5070569;28;25252;-45
2022/06/01 06:28:27;;;;;;;10.93;10.07;;;;;;;;;;5067602;28;24461;-45
2022/06/01 06:30:53;;;;;;;10.20;9.40;;;;;;;;;;5082955;28;24426;-46
2022/06/01 06:33:18;;;;;;;9.43;8.63;;;;;;;;;;5076292;28;24426;-46
2022/06/01 06:35:44;;;;;;;11.90;10.90;;;;;;;;;;5073585;28;24588;-46
2022/06/01 06:38:09;;;;;;;9.80;8.90;;;;;;;;;;5070250;28;24599;-45
2022/06/01 06:40:34;;;;;;;8.50;7.80;;;;;;;;;;5079637;28;24987;-46
2022/06/01 06:42:59;;;;;;;8.90;8.20;;;;;;;;;;5081033;28;24569;-44
2022/06/01 06:45:25;;;;;;;8.00;7.40;;;;;;;;;;5075103;28;24437;-44
2022/06/01 06:47:50;;;;;;;7.77;7.07;;;;;;;;;;5089587;28;24519;-45
2022/06/01 06:50:17;;;;;;;6.78;6.18;;;;;;;;;;5070607;28;24445;-45
2022/06/01 06:52:42;;;;;;;6.10;5.60;;;;;;;;;;5083276;28;24399;-46
2022/06/01 06:55:07;;;;;;;5.80;5.30;;;;;;;;;;5080691;28;24754;-45
2022/06/01 06:57:32;;;;;;;7.30;6.70;;;;;;;;;;5079782;28;24461;-45
2022/06/01 06:59:58;;;;;;;5.50;5.00;;;;;;;;;;5082438;28;24418;-46
2022/06/01 07:02:23;;;;;;;4.20;3.90;;;;;;;;;;5078881;28;24501;-46
2022/06/01 07:04:48;;;;;;;4.00;3.70;;;;;;;;;;5082647;28;25192;-46
2022/06/01 07:07:14;;;;;;;4.20;3.88;;;;;;;;;;5079584;28;24422;-46
2022/06/01 07:09:39;;;;;;;4.57;3.97;;;;;;;;;;5090103;28;24611;-46
2022/06/01 07:12:04;;;;;;;3.83;3.53;;;;;;;;;;5077578;28;24412;-45
2022/06/01 07:14:30;;;;;;;3.60;3.00;;;;;;;;;;5069025;28;24609;-45
2022/06/01 07:16:58;;;;;;;2.80;2.50;;;;;;;;;;5074218;28;24764;-46
2022/06/01 07:19:23;;;;;;;3.10;2.90;;;;;;;;;;5090168;28;24761;-45
2022/06/01 07:21:48;;;;;;;3.60;3.30;;;;;;;;;;5088371;28;24757;-45
2022/06/01 07:24:13;;;;;;;3.00;2.80;;;;;;;;;;5088104;28;24389;-46
2022/06/01 07:26:40;;;;;;;3.27;2.97;;;;;;;;;;5082875;28;24523;-46
2022/06/01 07:29:05;;;;;;;2.80;2.50;;;;;;;;;;5084063;28;24413;-46
2022/06/01 07:31:30;;;;;;;2.30;2.20;;;;;;;;;;5089903;28;24389;-46
2022/06/01 07:33:56;;;;;;;2.75;2.55;;;;;;;;;;5089990;28;24996;-46
2022/06/01 07:36:21;;;;;;;3.20;3.00;;;;;;;;;;5089746;28;24386;-46
2022/06/01 07:44:24;;;;;;;3.70;3.30;;;;;;;;;;5089440;28;24413;-45
2022/06/01 07:46:50;;;;;;;3.10;2.80;;;;;;;;;;5089372;28;24768;-45
2022/06/01 07:49:16;;;;;;;3.17;2.97;;;;;;;;;;5084535;28;24407;-46
2022/06/01 07:51:41;;;;;;;3.40;3.10;;;;;;;;;;5087276;28;24978;-46
2022/06/01 07:54:07;;;;;;;2.77;2.57;;;;;;;;;;5083781;28;24574;-46
2022/06/01 07:56:32;;;;;;;2.78;2.58;;;;;;;;;;5088379;28;24498;-46
2022/06/01 07:58:58;;;;;;;2.83;2.63;;;;;;;;;;5089397;28;24978;-46
2022/06/01 08:01:26;;;;;;;3.20;3.00;;;;;;;;;;5089079;28;24923;-46
2022/06/01 08:03:56;;;;;;;2.95;2.75;;;;;;;;;;5080810;28;24426;-46
2022/06/01 08:06:22;;;;;;;3.00;2.80;;;;;;;;;;5075742;28;25010;-46
2022/06/01 08:08:47;;;;;;;3.37;3.07;;;;;;;;;;5088600;28;24426;-45
2022/06/01 08:11:12;;;;;;;4.07;3.10;;;;;;;;;;5078232;28;24403;-46
2022/06/01 08:13:37;;;;;;;2.95;2.75;;;;;;;;;;5068375;28;24506;-45
2022/06/01 08:16:03;;;;;;;3.57;3.30;;;;;;;;;;5078330;28;24459;-46
2022/06/01 08:18:28;;;;;;;3.40;3.20;;;;;;;;;;5088524;28;24466;-46
2022/06/01 08:20:53;;;;;;;3.40;3.10;;;;;;;;;;5088703;28;24809;-46
2022/06/01 08:23:20;;;;;;;2.87;2.67;;;;;;;;;;5088516;28;24950;-46
2022/06/01 08:25:45;;;;;;;3.13;2.55;;;;;;;;;;5084165;28;24600;-45
2022/06/01 08:28:10;;;;;;;2.70;2.50;;;;;;;;;;5088954;28;24526;-46
2022/06/01 08:30:36;;;;;;;2.10;2.00;;;;;;;;;;5086878;28;24409;-46
2022/06/01 08:33:02;;;;;;;2.20;2.10;;;;;;;;;;5088474;28;24790;-46
2022/06/01 08:35:29;;;;;;;2.20;2.10;;;;;;;;;;5084328;28;25032;-46
2022/06/01 08:37:55;;;;;;;2.40;2.20;;;;;;;;;;5086486;28;24893;-45
2022/06/01 08:40:23;;;;;;;2.70;2.50;;;;;;;;;;5088433;28;24434;-46
2022/06/01 08:42:51;;;;;;;2.50;2.30;;;;;;;;;;5094388;28;24747;-46
2022/06/01 08:45:17;;;;;;;2.35;2.15;;;;;;;;;;5100072;28;25010;-45
2022/06/01 08:47:42;;;;;;;2.40;2.20;;;;;;;;;;5086106;28;24955;-46
2022/06/01 08:50:16;;;;;;;2.60;2.40;;;;;;;;;;5088077;28;24423;-46
2022/06/01 08:52:41;;;;;;;2.60;2.40;;;;;;;;;;5086463;28;24445;-46
2022/06/01 08:55:06;;;;;;;2.50;2.30;;;;;;;;;;5088292;28;24479;-45
2022/06/01 08:57:39;;;;;;;2.67;2.47;;;;;;;;;;5083191;28;24572;-45
2022/06/01 09:00:14;;;;;;;2.90;2.70;;;;;;;;;;5087876;28;24580;-46
2022/06/01 09:02:45;;;;;;;3.60;2.60;;;;;;;;;;5087912;28;24386;-46
2022/06/01 09:05:29;;;;;;;2.20;2.10;;;;;;;;;;5088125;28;24667;-45
2022/06/01 09:07:58;;;;;;;3.72;2.25;;;;;;;;;;5084326;28;24495;-46
2022/06/01 09:10:46;;;;;;;2.28;2.17;;;;;;;;;;5073323;28;24450;-46
2022/06/01 09:13:19;;;;;;;2.40;2.25;;;;;;;;;;5067564;28;24935;-46
2022/06/01 09:15:50;;;;;;;2.13;1.97;;;;;;;;;;5067240;28;24394;-46
2022/06/01 09:18:17;;;;;;;2.33;2.22;;;;;;;;;;5079179;28;24466;-46
2022/06/01 09:23:26;;;;;;;2.08;1.92;;;;;;;;;;5087132;28;24490;-46
2022/06/01 09:25:55;;;;;;;2.20;2.00;;;;;;;;;;5087178;28;24505;-45
2022/06/01 09:28:22;;;;;;;2.10;1.90;;;;;;;;;;5085259;28;24828;-45
2022/06/01 09:31:07;;;;;;;3.07;2.30;;;;;;;;;;5084790;28;24784;-46
2022/06/01 09:33:34;;;;;;;2.30;2.10;;;;;;;;;;5084398;28;24799;-47
2022/06/01 09:35:59;;;;;;;2.17;1.90;;;;;;;;;;5087240;28;24391;-46
2022/06/01 09:38:36;;;;;;;3.10;2.40;;;;;;;;;;5082851;28;24429;-46
2022/06/01 09:41:03;;;;;;;2.50;2.30;;;;;;;;;;5087462;28;24443;-48
2022/06/01 09:43:29;;;;;;;2.47;2.28;;;;;;;;;;5085379;28;24408;-45
2022/06/01 09:45:54;;;;;;;2.60;2.10;;;;;;;;;;5085343;28;24371;-45
2022/06/01 09:48:27;;;;;;;2.70;2.30;;;;;;;;;;5086996;28;24999;-45
2022/06/01 09:51:11;;;;;;;2.37;2.10;;;;;;;;;;5083870;28;24615;-45
2022/06/01 09:53:39;;;;;;;2.70;2.50;;;;;;;;;;5086946;28;24422;-45
2022/06/01 09:56:04;;;;;;;2.60;2.40;;;;;;;;;;5085382;28;24647;-46
2022/06/01 10:06:57;;;;;;;3.30;3.00;;;;;;;;;;5086299;28;24973;-45
2022/06/01 10:09:25;;;;;;;3.00;2.70;;;;;;;;;;5071211;28;24414;-45
2022/06/01 10:11:51;;;;;;;2.90;2.70;;;;;;;;;;5083960;28;24414;-46
2022/06/01 10:14:21;;;;;;;3.22;2.90;;;;;;;;;;5087040;28;24460;-46
2022/06/01 10:16:55;;;;;;;3.20;2.90;;;;;;;;;;5086407;28;25028;-46
2022/06/01 10:19:25;;;;;;;3.10;2.90;;;;;;;;;;5086343;28;24433;-46
2022/06/01 10:21:55;;;;;;;4.00;3.05;;;;;;;;;;5083821;28;24433;-44
2022/06/01 10:24:23;;;;;;;3.20;2.90;;;;;;;;;;5085103;28;25002;-46
2022/06/01 10:26:51;;;;;;;3.05;2.72;;;;;;;;;;5085723;28;24433;-47
2022/06/01 10:29:18;;;;;;;3.03;2.83;;;;;;;;;;5086828;28;24459;-46
2022/06/01 10:31:58;;;;;;;3.23;2.90;;;;;;;;;;5083958;28;24757;-46
2022/06/01 10:34:23;;;;;;;2.80;2.60;;;;;;;;;;5083872;28;24546;-46
2022/06/01 10:36:53;;;;;;;3.20;2.90;;;;;;;;;;5086143;28;24947;-46
2022/06/01 10:39:25;;;;;;;2.95;2.70;;;;;;;;;;5086376;28;24420;-46
2022/06/01 10:41:58;;;;;;;3.10;2.40;;;;;;;;;;5084555;28;24461;-45
2022/06/01 10:44:33;;;;;;;3.33;3.07;;;;;;;;;;5086347;28;24493;-44
2022/06/01 10:47:25;;;;;;;2.70;2.30;;;;;;;;;;5086310;28;24495;-45
2022/06/01 10:50:01;;;;;;;2.60;2.40;;;;;;;;;;5082526;28;24406;-45
2022/06/01 10:52:29;;;;;;;2.90;2.60;;;;;;;;;;5084451;28;24421;-45
2022/06/01 10:55:00;;;;;;;2.50;2.40;;;;;;;;;;5084319;28;24489;-44
2022/06/01 10:57:26;;;;;;;2.60;2.40;;;;;;;;;;5086015;28;24395;-45
2022/06/01 10:59:54;;;;;;;2.60;2.40;;;;;;;;;;5086390;28;24745;-45
2022/06/01 11:02:21;;;;;;;2.60;2.40;;;;;;;;;;5084731;28;24397;-44
2022/06/01 11:05:02;;;;;;;2.30;2.20;;;;;;;;;;5086030;28;24420;-45
2022/06/01 11:07:47;;;;;;;2.40;2.20;;;;;;;;;;5075491;28;24427;-45
2022/06/01 11:10:21;;;;;;;2.50;2.30;;;;;;;;;;5066638;28;24520;-45
2022/06/01 11:12:53;;;;;;;2.20;2.00;;;;;;;;;;5065749;28;24436;-45
2022/06/01 11:15:23;;;;;;;2.70;2.50;;;;;;;;;;5085720;28;24503;-44
2022/06/01 11:17:48;;;;;;;2.90;2.55;;;;;;;;;;5083869;28;24764;-45
2022/06/01 11:20:35;;;;;;;2.83;2.60;;;;;;;;;;5084767;28;24784;-46
2022/06/01 11:23:15;;;;;;;2.35;2.00;;;;;;;;;;5085711;28;24418;-45
2022/06/01 11:25:40;;;;;;;2.20;2.10;;;;;;;;;;5084208;28;24807;-45
2022/06/01 11:28:27;;;;;;;2.65;2.38;;;;;;;;;;5085520;28;24843;-46
2022/06/01 11:30:58;;;;;;;2.70;1.98;;;;;;;;;;5083866;28;24462;-46
2022/06/01 11:33:39;;;;;;;3.10;2.00;;;;;;;;;;5087604;28;24447;-46
2022/06/01 11:36:23;;;;;;;2.70;2.50;;;;;;;;;;5089347;28;24501;-45
2022/06/01 11:38:52;;;;;;;3.15;2.90;;;;;;;;;;5089284;28;24485;-45
2022/06/01 11:41:27;;;;;;;2.85;2.50;;;;;;;;;;5086090;28;24421;-45
2022/06/01 11:43:59;;;;;;;2.13;1.92;;;;;;;;;;5087598;28;24465;-45
2022/06/01 11:46:35;;;;;;;1.95;1.80;;;;;;;;;;5087729;28;24454;-45
2022/06/01 11:49:11;;;;;;;4.25;2.50;;;;;;;;;;5089256;28;24385;-46
2022/06/01 11:51:36;;;;;;;2.50;2.30;;;;;;;;;;5084775;28;24422;-45
2022/06/01 11:54:25;;;;;;;2.85;2.53;;;;;;;;;;5087718;28;24401;-44
2022/06/01 11:56:58;;;;;;;3.00;2.80;;;;;;;;;;5078594;28;24824;-45
2022/06/01 11:59:32;;;;;;;2.88;2.67;;;;;;;;;;5087277;28;24390;-46
2022/06/01 12:01:59;;;;;;;3.70;2.10;;;;;;;;;;5086830;28;25022;-45
2022/06/01 12:04:32;;;;;;;3.22;2.58;;;;;;;;;;5087064;28;24398;-45
2022/06/01 12:07:00;;;;;;;2.80;2.60;;;;;;;;;;5068950;28;24491;-45
2022/06/01 12:09:31;;;;;;;2.60;2.20;;;;;;;;;;5068510;28;24407;-45
2022/06/01 12:11:56;;;;;;;2.25;2.15;;;;;;;;;;5068235;28;24494;-46
2022/06/01 12:14:42;;;;;;;2.40;2.20;;;;;;;;;;5082011;28;24529;-45
2022/06/01 12:17:17;;;;;;;2.63;2.15;;;;;;;;;;5086333;28;24838;-44
2022/06/01 12:19:45;;;;;;;2.38;2.10;;;;;;;;;;5088568;28;24394;-46
2022/06/01 12:28:31;;;;;;;2.60;2.40;;;;;;;;;;5088675;28;24809;-46
2022/06/01 12:30:53;;;;;;;2.30;2.10;;;;;;;;;;5088280;28;24385;-46
2022/06/01 12:33:18;;;;;;;2.50;2.30;;;;;;;;;;5088972;28;24391;-46
2022/06/01 12:36:06;;;;;;;2.70;2.40;;;;;;;;;;5087181;28;24422;-46
2022/06/01 12:38:36;;;;;;;2.20;2.00;;;;;;;;;;5086484;28;24476;-46
2022/06/01 12:41:04;;;;;;;2.50;2.30;;;;;;;;;;5088385;28;24395;-46
2022/06/01 12:43:30;;;;;;;2.10;2.00;;;;;;;;;;5098932;28;24422;-46
2022/06/01 12:45:55;;;;;;;1.92;1.83;;;;;;;;;;5100497;28;24775;-44
2022/06/01 12:48:23;;;;;;;2.33;2.22;;;;;;;;;;5108892;28;24579;-44
2022/06/01 12:50:53;;;;;;;2.10;2.00;;;;;;;;;;5108527;28;24392;-44
2022/06/01 12:53:20;;;;;;;2.20;2.10;;;;;;;;;;5107079;28;24481;-44
2022/06/01 12:55:47;;;;;;;2.40;2.20;;;;;;;;;;5105024;28;24862;-44
2022/06/01 12:58:22;;;;;;;2.30;2.10;;;;;;;;;;5106461;28;24917;-46
2022/06/01 13:00:49;;;;;;;3.45;2.40;;;;;;;;;;5106845;28;24386;-46
2022/06/01 13:03:15;;;;;;;3.30;2.30;;;;;;;;;;5108111;28;24802;-46
2022/06/01 13:05:41;;;;;;;3.17;2.45;;;;;;;;;;5072297;28;24505;-45
2022/06/01 13:08:13;;;;;;;2.65;2.45;;;;;;;;;;5100358;28;24441;-45
2022/06/01 13:10:39;;;;;;;3.47;2.40;;;;;;;;;;5106750;28;24421;-46
2022/06/01 13:13:06;;;;;;;2.22;2.03;;;;;;;;;;5106290;28;24736;-51
2022/06/01 13:15:31;;;;;;;2.30;2.10;;;;;;;;;;5106214;28;24409;-45
2022/06/01 13:17:58;;;;;;;2.10;2.00;;;;;;;;;;5102338;28;24484;-46
2022/06/01 13:20:32;;;;;;;2.57;1.70;;;;;;;;;;5106525;28;24489;-45
2022/06/01 13:22:57;;;;;;;3.03;2.00;;;;;;;;;;5107278;28;24919;-46
2022/06/01 13:25:26;;;;;;;2.30;2.10;;;;;;;;;;5106377;28;24396;-46
2022/06/01 13:27:52;;;;;;;5.38;2.38;;;;;;;;;;5099700;28;24964;-44
2022/06/01 13:30:17;;;;;;;2.50;2.30;;;;;;;;;;5107802;28;24409;-45
2022/06/01 13:32:43;;;;;;;2.30;2.10;;;;;;;;;;5105980;28;24388;-45
2022/06/01 13:35:28;;;;;;;2.40;2.30;;;;;;;;;;5107684;28;24408;-44
2022/06/01 13:37:55;;;;;;;1.95;1.80;;;;;;;;;;5103215;28;24807;-45
2022/06/01 13:40:25;;;;;;;2.67;2.10;;;;;;;;;;5106251;28;24389;-45
2022/06/01 13:42:58;;;;;;;1.80;1.70;;;;;;;;;;5099200;28;24433;-45
2022/06/01 13:45:33;;;;;;;2.22;2.03;;;;;;;;;;5085622;28;24964;-45
2022/06/01 13:48:00;;;;;;;2.30;2.10;;;;;;;;;;5084346;28;24452;-45
2022/06/01 13:50:30;;;;;;;2.30;2.10;;;;;;;;;;5080933;28;24406;-46
2022/06/01 13:52:55;;;;;;;2.30;2.10;;;;;;;;;;5087064;28;24916;-46
2022/06/01 13:55:22;;;;;;;2.40;2.30;;;;;;;;;;5085225;28;24927;-47
2022/06/01 13:57:52;;;;;;;2.28;2.10;;;;;;;;;;5085188;28;24948;-47
2022/06/01 14:00:20;;;;;;;1.90;1.80;;;;;;;;;;5080890;28;24770;-44
2022/06/01 14:02:50;;;;;;;2.30;2.20;;;;;;;;;;5081273;28;24399;-45
2022/06/01 14:05:17;;;;;;;2.55;2.35;;;;;;;;;;5066652;28;24395;-45
2022/06/01 14:08:03;;;;;;;2.10;2.00;;;;;;;;;;5064952;28;24500;-45
2022/06/01 14:10:29;;;;;;;2.03;1.92;;;;;;;;;;5071538;28;24445;-45
2022/06/01 14:12:55;;;;;;;2.40;2.20;;;;;;;;;;5084969;28;24409;-45
2022/06/01 14:15:20;;;;;;;2.40;2.20;;;;;;;;;;5086704;28;24892;-46
2022/06/01 14:17:45;;;;;;;2.75;2.10;;;;;;;;;;5086618;28;24398;-45
2022/06/01 14:20:12;;;;;;;2.70;2.30;;;;;;;;;;5077644;28;24423;-44
2022/06/01 14:22:37;;;;;;;2.30;2.10;;;;;;;;;;5086922;28;24427;-45
2022/06/01 14:30:30;;;;;;;2.50;2.00;;;;;;;;;;5083619;28;25048;-45
2022/06/01 14:32:56;;;;;;;2.10;2.00;;;;;;;;;;5084712;28;24485;-45
2022/06/01 14:35:21;;;;;;;2.08;1.88;;;;;;;;;;5086718;28;24757;-44
2022/06/01 14:37:48;;;;;;;3.90;3.50;;;;;;;;;;5084527;28;24403;-44
2022/06/01 14:40:13;;;;;;;4.38;4.07;;;;;;;;;;5084428;28;24877;-45
2022/06/01 14:42:38;;;;;;;2.63;2.43;;;;;;;;;;5084579;28;25093;-44
2022/06/01 14:45:04;;;;;;;2.47;2.27;;;;;;;;;;5086083;28;24398;-44
2022/06/01 14:47:29;;;;;;;2.53;2.20;;;;;;;;;;5084577;28;24409;-46
2022/06/01 14:49:55;;;;;;;2.20;2.00;;;;;;;;;;5086289;28;24808;-46
2022/06/01 14:52:20;;;;;;;2.28;2.08;;;;;;;;;;5080127;28;24425;-46
2022/06/01 14:54:46;;;;;;;2.40;2.20;;;;;;;;;;5054953;28;24522;-46
2022/06/01 14:57:11;;;;;;;2.00;1.90;;;;;;;;;;5059104;28;24658;-46
2022/06/01 14:59:37;;;;;;;2.20;2.10;;;;;;;;;;5069077;28;24415;-46
2022/06/01 15:02:03;;;;;;;2.22;2.00;;;;;;;;;;5058893;28;24528;-45
2022/06/01 15:04:33;;;;;;;2.60;2.40;;;;;;;;;;5065558;28;24421;-45
2022/06/01 15:06:58;;;;;;;2.28;2.10;;;;;;;;;;5062840;28;24438;-45
2022/06/01 15:09:24;;;;;;;2.60;2.40;;;;;;;;;;5059987;28;24438;-46
2022/06/01 15:11:49;;;;;;;2.10;2.00;;;;;;;;;;5070170;28;24391;-46
2022/06/01 15:14:14;;;;;;;2.38;2.28;;;;;;;;;;5069787;28;24739;-46